sensor_id;sensor_type;location;lat;lon;timestamp;temperature;humidity
27026;DHT22;14565;48.626;8.978;2023-04-01T00:00:55;7.10;99.90
27026;DHT22;14565;48.626;8.978;2023-04-01T00:03:21;7.10;99.90
27026;DHT22;14565;48.626;8.978;2023-04-01T00:05:47;7.10;99.90
27026;DHT22;14565;48.626;8.978;2023-04-01T00:08:14;7.10;99.90
27026;DHT22;14565;48.626;8.978;2023-04-01T00:10:40;7.00;99.90
27026;DHT22;14565;48.626;8.978;2023-04-01T00:13:06;7.00;99.90
27026;DHT22;14565;48.626;8.978;2023-04-01T00:15:32;7.00;99.90
27026;DHT22;14565;48.626;8.978;2023-04-01T00:17:59;7.00;99.90
27026;DHT22;14565;48.626;8.978;2023-04-01T00:20:25;7.00;99.90
27026;DHT22;14565;48.626;8.978;2023-04-01T00:22:50;7.00;99.90
27026;DHT22;14565;48.626;8.978;2023-04-01T00:25:16;7.00;99.90
27026;DHT22;14565;48.626;8.978;2023-04-01T00:27:42;7.00;99.90
27026;DHT22;14565;48.626;8.978;2023-04-01T00:30:09;7.10;99.90
27026;DHT22;14565;48.626;8.978;2023-04-01T00:32:35;7.10;99.90
27026;DHT22;14565;48.626;8.978;2023-04-01T00:35:01;7.10;99.90
27026;DHT22;14565;48.626;8.978;2023-04-01T00:37:29;7.10;99.90
27026;DHT22;14565;48.626;8.978;2023-04-01T00:39:55;7.10;99.90
27026;DHT22;14565;48.626;8.978;2023-04-01T00:42:21;7.10;99.90
27026;DHT22;14565;48.626;8.978;2023-04-01T00:44:51;7.20;99.90
27026;DHT22;14565;48.626;8.978;2023-04-01T00:47:20;7.10;99.90
27026;DHT22;14565;48.626;8.978;2023-04-01T00:49:49;7.10;99.90
27026;DHT22;14565;48.626;8.978;2023-04-01T00:52:19;7.10;99.90
27026;DHT22;14565;48.626;8.978;2023-04-01T00:54:47;7.10;99.90
27026;DHT22;14565;48.626;8.978;2023-04-01T00:57:24;7.10;99.90
27026;DHT22;14565;48.626;8.978;2023-04-01T00:59:54;7.00;99.90
27026;DHT22;14565;48.626;8.978;2023-04-01T01:02:21;7.00;99.90
27026;DHT22;14565;48.626;8.978;2023-04-01T01:04:47;7.00;99.90
27026;DHT22;14565;48.626;8.978;2023-04-01T01:12:39;7.10;99.90
27026;DHT22;14565;48.626;8.978;2023-04-01T01:15:21;7.10;99.90
27026;DHT22;14565;48.626;8.978;2023-04-01T01:34:44;7.00;99.90
27026;DHT22;14565;48.626;8.978;2023-04-01T01:37:16;7.10;99.90
27026;DHT22;14565;48.626;8.978;2023-04-01T01:39:45;7.00;99.90
27026;DHT22;14565;48.626;8.978;2023-04-01T01:42:15;7.00;99.90
27026;DHT22;14565;48.626;8.978;2023-04-01T01:44:43;7.00;99.90
27026;DHT22;14565;48.626;8.978;2023-04-01T01:47:10;7.00;99.90
27026;DHT22;14565;48.626;8.978;2023-04-01T01:49:38;7.00;99.90
27026;DHT22;14565;48.626;8.978;2023-04-01T01:52:04;7.00;99.90
27026;DHT22;14565;48.626;8.978;2023-04-01T01:54:30;6.90;99.90
27026;DHT22;14565;48.626;8.978;2023-04-01T01:57:05;6.90;99.90
27026;DHT22;14565;48.626;8.978;2023-04-01T01:59:33;6.90;99.90
27026;DHT22;14565;48.626;8.978;2023-04-01T02:02:01;6.90;99.90
27026;DHT22;14565;48.626;8.978;2023-04-01T02:04:40;6.80;99.90
27026;DHT22;14565;48.626;8.978;2023-04-01T02:07:11;6.80;99.90
27026;DHT22;14565;48.626;8.978;2023-04-01T02:09:39;6.80;99.90
27026;DHT22;14565;48.626;8.978;2023-04-01T02:12:10;6.80;99.90
27026;DHT22;14565;48.626;8.978;2023-04-01T02:17:11;6.70;99.90
27026;DHT22;14565;48.626;8.978;2023-04-01T02:19:44;6.70;99.90
27026;DHT22;14565;48.626;8.978;2023-04-01T02:22:18;6.70;99.90
27026;DHT22;14565;48.626;8.978;2023-04-01T02:24:45;6.80;99.90
27026;DHT22;14565;48.626;8.978;2023-04-01T02:27:11;6.70;99.90
27026;DHT22;14565;48.626;8.978;2023-04-01T02:29:38;6.80;99.90
27026;DHT22;14565;48.626;8.978;2023-04-01T02:32:05;6.80;99.90
27026;DHT22;14565;48.626;8.978;2023-04-01T02:34:31;6.70;99.90
27026;DHT22;14565;48.626;8.978;2023-04-01T02:36:58;6.70;99.90
27026;DHT22;14565;48.626;8.978;2023-04-01T02:39:23;6.70;99.90
27026;DHT22;14565;48.626;8.978;2023-04-01T02:41:50;6.70;99.90
27026;DHT22;14565;48.626;8.978;2023-04-01T02:44:16;6.60;99.90
27026;DHT22;14565;48.626;8.978;2023-04-01T02:46:42;6.60;99.90
27026;DHT22;14565;48.626;8.978;2023-04-01T02:49:07;6.60;99.90
27026;DHT22;14565;48.626;8.978;2023-04-01T02:51:33;6.60;99.90
27026;DHT22;14565;48.626;8.978;2023-04-01T02:54:00;6.60;99.90
27026;DHT22;14565;48.626;8.978;2023-04-01T02:56:25;6.50;99.90
27026;DHT22;14565;48.626;8.978;2023-04-01T02:58:51;6.60;99.90
27026;DHT22;14565;48.626;8.978;2023-04-01T03:01:17;6.50;99.90
27026;DHT22;14565;48.626;8.978;2023-04-01T03:03:43;6.50;99.90
27026;DHT22;14565;48.626;8.978;2023-04-01T03:06:11;6.50;99.90
27026;DHT22;14565;48.626;8.978;2023-04-01T03:08:36;6.40;99.90
27026;DHT22;14565;48.626;8.978;2023-04-01T03:11:02;6.40;99.90
27026;DHT22;14565;48.626;8.978;2023-04-01T03:13:28;6.40;99.90
27026;DHT22;14565;48.626;8.978;2023-04-01T03:15:54;6.40;99.90
27026;DHT22;14565;48.626;8.978;2023-04-01T03:18:20;6.30;99.90
27026;DHT22;14565;48.626;8.978;2023-04-01T03:20:46;6.30;99.90
27026;DHT22;14565;48.626;8.978;2023-04-01T03:23:12;6.30;99.90
27026;DHT22;14565;48.626;8.978;2023-04-01T03:25:37;6.30;99.90
27026;DHT22;14565;48.626;8.978;2023-04-01T03:28:03;6.40;99.90
27026;DHT22;14565;48.626;8.978;2023-04-01T03:30:29;6.30;99.90
27026;DHT22;14565;48.626;8.978;2023-04-01T03:32:57;6.30;99.90
27026;DHT22;14565;48.626;8.978;2023-04-01T03:35:23;6.30;99.90
27026;DHT22;14565;48.626;8.978;2023-04-01T03:37:50;6.30;99.90
27026;DHT22;14565;48.626;8.978;2023-04-01T03:40:16;6.30;99.90
27026;DHT22;14565;48.626;8.978;2023-04-01T03:42:42;6.20;99.90
27026;DHT22;14565;48.626;8.978;2023-04-01T03:45:08;6.20;99.90
27026;DHT22;14565;48.626;8.978;2023-04-01T03:47:34;6.30;99.90
27026;DHT22;14565;48.626;8.978;2023-04-01T03:50:00;6.20;99.90
27026;DHT22;14565;48.626;8.978;2023-04-01T03:52:26;6.20;99.90
27026;DHT22;14565;48.626;8.978;2023-04-01T03:54:51;6.20;99.90
27026;DHT22;14565;48.626;8.978;2023-04-01T03:57:17;6.20;99.90
27026;DHT22;14565;48.626;8.978;2023-04-01T03:59:43;6.20;99.90
27026;DHT22;14565;48.626;8.978;2023-04-01T04:02:08;6.20;99.90
27026;DHT22;14565;48.626;8.978;2023-04-01T04:04:34;6.10;99.90
27026;DHT22;14565;48.626;8.978;2023-04-01T04:06:59;6.10;99.90
27026;DHT22;14565;48.626;8.978;2023-04-01T04:09:25;6.10;99.90
27026;DHT22;14565;48.626;8.978;2023-04-01T04:11:51;6.00;99.90
27026;DHT22;14565;48.626;8.978;2023-04-01T04:14:16;6.00;99.90
27026;DHT22;14565;48.626;8.978;2023-04-01T04:16:42;6.00;99.90
27026;DHT22;14565;48.626;8.978;2023-04-01T04:19:08;5.90;99.90
27026;DHT22;14565;48.626;8.978;2023-04-01T04:21:34;5.90;99.90
27026;DHT22;14565;48.626;8.978;2023-04-01T04:24:00;5.80;99.90
27026;DHT22;14565;48.626;8.978;2023-04-01T04:26:26;5.90;99.90
27026;DHT22;14565;48.626;8.978;2023-04-01T04:28:54;5.80;99.90
27026;DHT22;14565;48.626;8.978;2023-04-01T04:31:21;5.90;99.90
27026;DHT22;14565;48.626;8.978;2023-04-01T04:33:47;5.90;99.90
27026;DHT22;14565;48.626;8.978;2023-04-01T04:36:13;6.00;99.90
27026;DHT22;14565;48.626;8.978;2023-04-01T04:38:38;6.00;99.90
27026;DHT22;14565;48.626;8.978;2023-04-01T04:41:15;6.10;99.90
27026;DHT22;14565;48.626;8.978;2023-04-01T04:43:41;6.10;99.90
27026;DHT22;14565;48.626;8.978;2023-04-01T04:46:10;6.20;99.90
27026;DHT22;14565;48.626;8.978;2023-04-01T04:48:36;6.30;99.90
27026;DHT22;14565;48.626;8.978;2023-04-01T04:51:02;6.30;99.90
27026;DHT22;14565;48.626;8.978;2023-04-01T04:53:28;6.40;99.90
27026;DHT22;14565;48.626;8.978;2023-04-01T04:55:54;6.50;99.90
27026;DHT22;14565;48.626;8.978;2023-04-01T04:58:20;6.50;99.90
27026;DHT22;14565;48.626;8.978;2023-04-01T05:00:46;6.50;99.90
27026;DHT22;14565;48.626;8.978;2023-04-01T05:03:12;6.60;99.90
27026;DHT22;14565;48.626;8.978;2023-04-01T05:05:39;6.50;99.90
27026;DHT22;14565;48.626;8.978;2023-04-01T05:08:04;6.60;99.90
27026;DHT22;14565;48.626;8.978;2023-04-01T05:10:30;6.60;99.90
27026;DHT22;14565;48.626;8.978;2023-04-01T05:12:57;6.60;99.90
27026;DHT22;14565;48.626;8.978;2023-04-01T05:15:23;6.60;99.90
27026;DHT22;14565;48.626;8.978;2023-04-01T05:17:49;6.60;99.90
27026;DHT22;14565;48.626;8.978;2023-04-01T05:20:15;6.70;99.90
27026;DHT22;14565;48.626;8.978;2023-04-01T05:22:41;6.70;99.90
27026;DHT22;14565;48.626;8.978;2023-04-01T05:25:07;6.70;99.90
27026;DHT22;14565;48.626;8.978;2023-04-01T05:27:33;6.70;99.90
27026;DHT22;14565;48.626;8.978;2023-04-01T05:29:59;6.70;99.90
27026;DHT22;14565;48.626;8.978;2023-04-01T05:32:25;6.80;99.90
27026;DHT22;14565;48.626;8.978;2023-04-01T05:34:54;6.80;99.90
27026;DHT22;14565;48.626;8.978;2023-04-01T05:37:19;6.80;99.90
27026;DHT22;14565;48.626;8.978;2023-04-01T05:39:45;6.80;99.90
27026;DHT22;14565;48.626;8.978;2023-04-01T05:42:11;6.80;99.90
27026;DHT22;14565;48.626;8.978;2023-04-01T05:44:37;6.80;99.90
27026;DHT22;14565;48.626;8.978;2023-04-01T05:47:03;6.70;99.90
27026;DHT22;14565;48.626;8.978;2023-04-01T05:49:29;6.80;99.90
27026;DHT22;14565;48.626;8.978;2023-04-01T05:51:57;6.80;99.90
27026;DHT22;14565;48.626;8.978;2023-04-01T05:54:23;6.90;99.90
27026;DHT22;14565;48.626;8.978;2023-04-01T05:56:49;6.90;99.90
27026;DHT22;14565;48.626;8.978;2023-04-01T05:59:15;7.00;99.90
27026;DHT22;14565;48.626;8.978;2023-04-01T06:01:41;7.00;99.90
27026;DHT22;14565;48.626;8.978;2023-04-01T06:04:13;6.90;99.90
27026;DHT22;14565;48.626;8.978;2023-04-01T06:06:39;7.00;99.90
27026;DHT22;14565;48.626;8.978;2023-04-01T06:09:26;7.10;99.90
27026;DHT22;14565;48.626;8.978;2023-04-01T06:25:42;7.10;99.90
27026;DHT22;14565;48.626;8.978;2023-04-01T06:28:52;7.10;99.90
27026;DHT22;14565;48.626;8.978;2023-04-01T06:55:48;7.20;99.90
27026;DHT22;14565;48.626;8.978;2023-04-01T06:58:24;7.30;99.90
27026;DHT22;14565;48.626;8.978;2023-04-01T07:01:06;7.30;99.90
27026;DHT22;14565;48.626;8.978;2023-04-01T07:03:33;7.30;99.90
27026;DHT22;14565;48.626;8.978;2023-04-01T07:06:27;7.40;99.90
27026;DHT22;14565;48.626;8.978;2023-04-01T07:08:55;7.40;99.90
27026;DHT22;14565;48.626;8.978;2023-04-01T07:11:32;7.50;99.90
27026;DHT22;14565;48.626;8.978;2023-04-01T07:16:35;7.40;99.90
27026;DHT22;14565;48.626;8.978;2023-04-01T07:19:08;7.50;99.90
27026;DHT22;14565;48.626;8.978;2023-04-01T07:21:48;7.50;99.90
27026;DHT22;14565;48.626;8.978;2023-04-01T07:24:25;7.50;99.90
27026;DHT22;14565;48.626;8.978;2023-04-01T07:26:56;7.60;99.90
27026;DHT22;14565;48.626;8.978;2023-04-01T07:29:23;7.60;99.90
27026;DHT22;14565;48.626;8.978;2023-04-01T07:37:12;7.70;99.90
27026;DHT22;14565;48.626;8.978;2023-04-01T07:42:16;7.70;99.90
27026;DHT22;14565;48.626;8.978;2023-04-01T07:50:35;7.90;99.90
27026;DHT22;14565;48.626;8.978;2023-04-01T07:56:06;7.90;99.90
27026;DHT22;14565;48.626;8.978;2023-04-01T08:07:44;7.90;99.90
27026;DHT22;14565;48.626;8.978;2023-04-01T08:10:18;7.90;99.90
27026;DHT22;14565;48.626;8.978;2023-04-01T08:15:28;7.90;99.90
27026;DHT22;14565;48.626;8.978;2023-04-01T08:25:46;7.90;99.90
27026;DHT22;14565;48.626;8.978;2023-04-01T08:31:24;7.90;99.90
27026;DHT22;14565;48.626;8.978;2023-04-01T08:33:53;7.90;99.90
27026;DHT22;14565;48.626;8.978;2023-04-01T08:36:36;7.80;99.90
27026;DHT22;14565;48.626;8.978;2023-04-01T08:39:07;7.80;99.90
27026;DHT22;14565;48.626;8.978;2023-04-01T08:50:37;7.60;99.90
27026;DHT22;14565;48.626;8.978;2023-04-01T09:01:43;8.10;99.90
27026;DHT22;14565;48.626;8.978;2023-04-01T09:04:32;8.40;99.90
27026;DHT22;14565;48.626;8.978;2023-04-01T09:20:44;9.00;99.90
27026;DHT22;14565;48.626;8.978;2023-04-01T09:28:45;9.20;99.90
27026;DHT22;14565;48.626;8.978;2023-04-01T09:45:35;8.90;99.90
27026;DHT22;14565;48.626;8.978;2023-04-01T10:05:27;8.50;99.90
27026;DHT22;14565;48.626;8.978;2023-04-01T10:25:34;9.10;99.90
27026;DHT22;14565;48.626;8.978;2023-04-01T10:31:11;8.80;99.90
27026;DHT22;14565;48.626;8.978;2023-04-01T11:06:04;9.90;99.90
27026;DHT22;14565;48.626;8.978;2023-04-01T11:25:36;9.90;99.90
27026;DHT22;14565;48.626;8.978;2023-04-01T11:28:23;10.10;99.90
27026;DHT22;14565;48.626;8.978;2023-04-01T11:45:28;10.10;99.90
27026;DHT22;14565;48.626;8.978;2023-04-01T11:53:30;10.50;99.90
27026;DHT22;14565;48.626;8.978;2023-04-01T11:59:17;10.40;99.90
27026;DHT22;14565;48.626;8.978;2023-04-01T12:13:02;10.50;99.90
27026;DHT22;14565;48.626;8.978;2023-04-01T12:26:25;10.40;99.90
27026;DHT22;14565;48.626;8.978;2023-04-01T12:34:41;9.90;99.90
27026;DHT22;14565;48.626;8.978;2023-04-01T12:45:54;10.20;99.90
27026;DHT22;14565;48.626;8.978;2023-04-01T12:58:59;10.20;99.90
27026;DHT22;14565;48.626;8.978;2023-04-01T13:19:08;10.30;99.90
27026;DHT22;14565;48.626;8.978;2023-04-01T13:21:50;10.40;99.90
27026;DHT22;14565;48.626;8.978;2023-04-01T13:24:24;10.30;99.90
27026;DHT22;14565;48.626;8.978;2023-04-01T13:27:14;10.40;99.90
27026;DHT22;14565;48.626;8.978;2023-04-01T13:34:55;10.30;99.90
27026;DHT22;14565;48.626;8.978;2023-04-01T13:40:33;10.40;99.90
27026;DHT22;14565;48.626;8.978;2023-04-01T13:43:21;10.30;99.90
27026;DHT22;14565;48.626;8.978;2023-04-01T13:49:00;10.30;99.90
27026;DHT22;14565;48.626;8.978;2023-04-01T13:51:53;10.10;99.90
27026;DHT22;14565;48.626;8.978;2023-04-01T14:00:41;10.50;99.90
27026;DHT22;14565;48.626;8.978;2023-04-01T14:08:36;10.20;99.90
27026;DHT22;14565;48.626;8.978;2023-04-01T14:22:40;10.60;99.90
27026;DHT22;14565;48.626;8.978;2023-04-01T14:33:41;10.40;99.90
27026;DHT22;14565;48.626;8.978;2023-04-01T14:40:05;10.60;99.90
27026;DHT22;14565;48.626;8.978;2023-04-01T14:42:48;10.30;99.90
27026;DHT22;14565;48.626;8.978;2023-04-01T14:45:25;10.30;99.90
27026;DHT22;14565;48.626;8.978;2023-04-01T14:48:29;10.50;99.90
27026;DHT22;14565;48.626;8.978;2023-04-01T14:56:43;10.40;99.90
27026;DHT22;14565;48.626;8.978;2023-04-01T14:59:14;10.30;99.90
27026;DHT22;14565;48.626;8.978;2023-04-01T15:02:08;10.10;99.90
27026;DHT22;14565;48.626;8.978;2023-04-01T15:04:49;10.20;99.90
27026;DHT22;14565;48.626;8.978;2023-04-01T15:10:01;10.20;99.90
27026;DHT22;14565;48.626;8.978;2023-04-01T15:21:30;10.10;99.90
27026;DHT22;14565;48.626;8.978;2023-04-01T15:37:16;10.20;99.90
27026;DHT22;14565;48.626;8.978;2023-04-01T15:42:25;10.00;99.90
27026;DHT22;14565;48.626;8.978;2023-04-01T15:56:48;9.50;99.90
27026;DHT22;14565;48.626;8.978;2023-04-01T15:59:41;9.50;99.90
27026;DHT22;14565;48.626;8.978;2023-04-01T16:05:02;9.50;99.90
27026;DHT22;14565;48.626;8.978;2023-04-01T16:21:50;9.50;99.90
27026;DHT22;14565;48.626;8.978;2023-04-01T16:35:28;9.70;99.90
27026;DHT22;14565;48.626;8.978;2023-04-01T16:37:59;9.70;99.90
27026;DHT22;14565;48.626;8.978;2023-04-01T16:45:40;9.50;99.90
27026;DHT22;14565;48.626;8.978;2023-04-01T16:50:59;9.50;99.90
27026;DHT22;14565;48.626;8.978;2023-04-01T16:54:01;9.50;99.90
27026;DHT22;14565;48.626;8.978;2023-04-01T16:56:42;9.40;99.90
27026;DHT22;14565;48.626;8.978;2023-04-01T16:59:21;9.40;99.90
27026;DHT22;14565;48.626;8.978;2023-04-01T17:01:53;9.20;99.90
27026;DHT22;14565;48.626;8.978;2023-04-01T17:12:38;9.00;99.90
27026;DHT22;14565;48.626;8.978;2023-04-01T17:18:04;8.90;99.90
27026;DHT22;14565;48.626;8.978;2023-04-01T17:20:35;8.80;99.90
27026;DHT22;14565;48.626;8.978;2023-04-01T17:40:23;8.50;99.90
27026;DHT22;14565;48.626;8.978;2023-04-01T17:59:06;8.60;99.90
27026;DHT22;14565;48.626;8.978;2023-04-01T18:01:59;8.60;99.90
27026;DHT22;14565;48.626;8.978;2023-04-01T18:07:14;8.60;99.90
27026;DHT22;14565;48.626;8.978;2023-04-01T18:23:35;8.10;99.90
27026;DHT22;14565;48.626;8.978;2023-04-01T18:26:06;7.90;99.90
27026;DHT22;14565;48.626;8.978;2023-04-01T18:28:41;7.70;99.90
27026;DHT22;14565;48.626;8.978;2023-04-01T18:31:15;7.50;99.90
27026;DHT22;14565;48.626;8.978;2023-04-01T18:36:55;7.30;99.90
27026;DHT22;14565;48.626;8.978;2023-04-01T18:39:38;7.30;99.90
27026;DHT22;14565;48.626;8.978;2023-04-01T18:48:16;7.20;99.90
27026;DHT22;14565;48.626;8.978;2023-04-01T18:51:01;7.20;99.90
27026;DHT22;14565;48.626;8.978;2023-04-01T18:53:38;7.10;99.90
27026;DHT22;14565;48.626;8.978;2023-04-01T18:56:09;7.10;99.90
27026;DHT22;14565;48.626;8.978;2023-04-01T19:01:26;7.10;99.90
27026;DHT22;14565;48.626;8.978;2023-04-01T19:04:00;7.10;99.90
27026;DHT22;14565;48.626;8.978;2023-04-01T19:06:36;7.00;99.90
27026;DHT22;14565;48.626;8.978;2023-04-01T19:09:30;7.00;99.90
27026;DHT22;14565;48.626;8.978;2023-04-01T19:20:55;6.80;99.90
27026;DHT22;14565;48.626;8.978;2023-04-01T19:23:58;6.80;99.90
27026;DHT22;14565;48.626;8.978;2023-04-01T19:26:53;6.70;99.90
27026;DHT22;14565;48.626;8.978;2023-04-01T19:29:35;6.60;99.90
27026;DHT22;14565;48.626;8.978;2023-04-01T19:35:19;6.50;99.90
27026;DHT22;14565;48.626;8.978;2023-04-01T19:40:57;6.50;99.90
27026;DHT22;14565;48.626;8.978;2023-04-01T19:46:36;6.40;99.90
27026;DHT22;14565;48.626;8.978;2023-04-01T19:49:18;6.50;99.90
27026;DHT22;14565;48.626;8.978;2023-04-01T19:54:58;6.40;99.90
27026;DHT22;14565;48.626;8.978;2023-04-01T20:00:26;6.40;99.90
27026;DHT22;14565;48.626;8.978;2023-04-01T20:06:00;6.40;99.90
27026;DHT22;14565;48.626;8.978;2023-04-01T20:14:50;6.50;99.90
27026;DHT22;14565;48.626;8.978;2023-04-01T20:22:35;6.60;99.90
27026;DHT22;14565;48.626;8.978;2023-04-01T20:27:44;6.70;99.90
27026;DHT22;14565;48.626;8.978;2023-04-01T20:33:16;6.70;99.90
27026;DHT22;14565;48.626;8.978;2023-04-01T20:38:59;6.80;99.90
27026;DHT22;14565;48.626;8.978;2023-04-01T20:41:58;6.80;99.90
27026;DHT22;14565;48.626;8.978;2023-04-01T21:11:51;6.90;99.90
27026;DHT22;14565;48.626;8.978;2023-04-01T21:30:41;7.00;99.90
27026;DHT22;14565;48.626;8.978;2023-04-01T21:33:30;7.00;99.90
27026;DHT22;14565;48.626;8.978;2023-04-01T21:36:08;6.90;99.90
27026;DHT22;14565;48.626;8.978;2023-04-01T21:55:23;7.00;99.90
27026;DHT22;14565;48.626;8.978;2023-04-01T22:16:56;6.70;99.90
27026;DHT22;14565;48.626;8.978;2023-04-01T22:19:53;6.80;99.90
27026;DHT22;14565;48.626;8.978;2023-04-01T22:25:14;6.70;99.90
27026;DHT22;14565;48.626;8.978;2023-04-01T22:32:50;6.60;99.90
27026;DHT22;14565;48.626;8.978;2023-04-01T22:38:07;6.50;99.90
27026;DHT22;14565;48.626;8.978;2023-04-01T22:40:47;6.50;99.90
27026;DHT22;14565;48.626;8.978;2023-04-01T22:43:25;6.40;99.90
27026;DHT22;14565;48.626;8.978;2023-04-01T22:46:07;6.40;99.90
27026;DHT22;14565;48.626;8.978;2023-04-01T22:48:46;6.30;99.90
27026;DHT22;14565;48.626;8.978;2023-04-01T22:54:39;6.10;99.90
27026;DHT22;14565;48.626;8.978;2023-04-01T23:00:03;6.00;99.90
27026;DHT22;14565;48.626;8.978;2023-04-01T23:02:37;6.00;99.90
27026;DHT22;14565;48.626;8.978;2023-04-01T23:05:08;5.90;99.90
27026;DHT22;14565;48.626;8.978;2023-04-01T23:10:51;5.80;99.90
27026;DHT22;14565;48.626;8.978;2023-04-01T23:13:29;5.80;99.90
27026;DHT22;14565;48.626;8.978;2023-04-01T23:15:57;5.80;99.90
27026;DHT22;14565;48.626;8.978;2023-04-01T23:18:35;5.80;99.90
27026;DHT22;14565;48.626;8.978;2023-04-01T23:26:40;5.90;99.90
27026;DHT22;14565;48.626;8.978;2023-04-01T23:29:15;5.90;99.90
27026;DHT22;14565;48.626;8.978;2023-04-01T23:31:42;5.90;99.90
27026;DHT22;14565;48.626;8.978;2023-04-01T23:34:21;5.90;99.90
27026;DHT22;14565;48.626;8.978;2023-04-01T23:37:10;5.90;99.90
27026;DHT22;14565;48.626;8.978;2023-04-01T23:39:42;6.00;99.90
27026;DHT22;14565;48.626;8.978;2023-04-01T23:44:52;5.90;99.90
27026;DHT22;14565;48.626;8.978;2023-04-01T23:47:39;5.90;99.90
27026;DHT22;14565;48.626;8.978;2023-04-01T23:50:20;5.90;99.90
27026;DHT22;14565;48.626;8.978;2023-04-01T23:53:03;5.90;99.90
27026;DHT22;14565;48.626;8.978;2023-04-01T23:55:34;5.90;99.90
